sensor_id;sensor_type;location;lat;lon;timestamp;temperature;humidity
9537;DHT22;4807;48.024;11.726;2022-08-19T00:01:23;17.70;99.90
9537;DHT22;4807;48.024;11.726;2022-08-19T00:04:36;17.80;99.90
9537;DHT22;4807;48.024;11.726;2022-08-19T00:07:46;17.80;99.90
9537;DHT22;4807;48.024;11.726;2022-08-19T00:10:55;18.00;99.90
9537;DHT22;4807;48.024;11.726;2022-08-19T00:14:04;18.10;99.90
9537;DHT22;4807;48.024;11.726;2022-08-19T00:17:15;18.10;99.90
9537;DHT22;4807;48.024;11.726;2022-08-19T00:20:24;18.10;99.90
9537;DHT22;4807;48.024;11.726;2022-08-19T00:23:33;18.10;99.90
9537;DHT22;4807;48.024;11.726;2022-08-19T00:26:43;18.10;99.90
9537;DHT22;4807;48.024;11.726;2022-08-19T00:29:53;18.00;99.90
9537;DHT22;4807;48.024;11.726;2022-08-19T00:33:06;18.00;99.90
9537;DHT22;4807;48.024;11.726;2022-08-19T00:36:16;18.00;99.90
9537;DHT22;4807;48.024;11.726;2022-08-19T00:39:25;18.00;99.90
9537;DHT22;4807;48.024;11.726;2022-08-19T00:42:37;18.00;99.90
9537;DHT22;4807;48.024;11.726;2022-08-19T00:46:13;18.00;99.90
9537;DHT22;4807;48.024;11.726;2022-08-19T00:49:29;18.00;99.90
9537;DHT22;4807;48.024;11.726;2022-08-19T00:52:46;18.00;99.90
9537;DHT22;4807;48.024;11.726;2022-08-19T00:55:59;18.00;99.90
9537;DHT22;4807;48.024;11.726;2022-08-19T00:59:11;18.10;99.90
9537;DHT22;4807;48.024;11.726;2022-08-19T01:02:42;18.10;99.90
9537;DHT22;4807;48.024;11.726;2022-08-19T01:05:54;18.10;99.90
9537;DHT22;4807;48.024;11.726;2022-08-19T01:09:04;18.10;99.90
9537;DHT22;4807;48.024;11.726;2022-08-19T01:12:13;18.20;99.90
9537;DHT22;4807;48.024;11.726;2022-08-19T01:15:27;18.20;99.90
9537;DHT22;4807;48.024;11.726;2022-08-19T01:18:40;18.10;99.90
9537;DHT22;4807;48.024;11.726;2022-08-19T01:21:56;18.00;99.90
9537;DHT22;4807;48.024;11.726;2022-08-19T01:25:24;18.10;99.90
9537;DHT22;4807;48.024;11.726;2022-08-19T01:28:37;18.00;99.90
9537;DHT22;4807;48.024;11.726;2022-08-19T01:31:48;17.90;99.90
9537;DHT22;4807;48.024;11.726;2022-08-19T01:35:00;17.90;99.90
9537;DHT22;4807;48.024;11.726;2022-08-19T01:38:19;17.90;99.90
9537;DHT22;4807;48.024;11.726;2022-08-19T01:41:34;17.90;99.90
9537;DHT22;4807;48.024;11.726;2022-08-19T01:44:42;18.00;99.90
9537;DHT22;4807;48.024;11.726;2022-08-19T01:47:51;18.00;99.90
9537;DHT22;4807;48.024;11.726;2022-08-19T01:51:09;17.90;99.90
9537;DHT22;4807;48.024;11.726;2022-08-19T01:54:19;18.10;99.90
9537;DHT22;4807;48.024;11.726;2022-08-19T01:57:35;18.10;99.90
9537;DHT22;4807;48.024;11.726;2022-08-19T02:00:44;18.10;99.90
9537;DHT22;4807;48.024;11.726;2022-08-19T02:03:53;18.20;99.90
9537;DHT22;4807;48.024;11.726;2022-08-19T02:07:04;18.00;99.90
9537;DHT22;4807;48.024;11.726;2022-08-19T02:10:16;18.10;99.90
9537;DHT22;4807;48.024;11.726;2022-08-19T02:13:30;18.10;99.90
9537;DHT22;4807;48.024;11.726;2022-08-19T02:16:39;18.10;99.90
9537;DHT22;4807;48.024;11.726;2022-08-19T02:19:47;18.10;99.90
9537;DHT22;4807;48.024;11.726;2022-08-19T02:22:55;18.10;99.90
9537;DHT22;4807;48.024;11.726;2022-08-19T02:26:04;18.20;99.90
9537;DHT22;4807;48.024;11.726;2022-08-19T02:29:15;18.10;99.90
9537;DHT22;4807;48.024;11.726;2022-08-19T02:32:23;18.10;99.90
9537;DHT22;4807;48.024;11.726;2022-08-19T02:35:32;18.40;99.90
9537;DHT22;4807;48.024;11.726;2022-08-19T02:38:40;18.20;99.90
9537;DHT22;4807;48.024;11.726;2022-08-19T02:42:00;18.20;99.90
9537;DHT22;4807;48.024;11.726;2022-08-19T02:45:11;18.00;99.90
9537;DHT22;4807;48.024;11.726;2022-08-19T02:48:21;17.80;99.90
9537;DHT22;4807;48.024;11.726;2022-08-19T02:51:33;17.70;99.90
9537;DHT22;4807;48.024;11.726;2022-08-19T02:54:43;17.50;99.90
9537;DHT22;4807;48.024;11.726;2022-08-19T02:57:52;17.60;99.90
9537;DHT22;4807;48.024;11.726;2022-08-19T03:01:03;17.50;99.90
9537;DHT22;4807;48.024;11.726;2022-08-19T03:04:24;17.40;99.90
9537;DHT22;4807;48.024;11.726;2022-08-19T03:07:34;17.40;99.90
9537;DHT22;4807;48.024;11.726;2022-08-19T03:10:45;17.30;99.90
9537;DHT22;4807;48.024;11.726;2022-08-19T03:13:55;17.20;99.90
9537;DHT22;4807;48.024;11.726;2022-08-19T03:17:06;17.10;99.90
9537;DHT22;4807;48.024;11.726;2022-08-19T03:20:15;17.20;99.90
9537;DHT22;4807;48.024;11.726;2022-08-19T03:23:24;15.00;99.90
9537;DHT22;4807;48.024;11.726;2022-08-19T03:26:33;17.30;99.90
9537;DHT22;4807;48.024;11.726;2022-08-19T03:29:41;17.30;99.90
9537;DHT22;4807;48.024;11.726;2022-08-19T03:32:52;17.40;99.90
9537;DHT22;4807;48.024;11.726;2022-08-19T03:36:07;17.30;99.90
9537;DHT22;4807;48.024;11.726;2022-08-19T03:39:16;17.20;99.90
9537;DHT22;4807;48.024;11.726;2022-08-19T03:42:24;17.20;99.90
9537;DHT22;4807;48.024;11.726;2022-08-19T03:46:00;17.20;99.90
9537;DHT22;4807;48.024;11.726;2022-08-19T03:49:12;17.30;99.90
9537;DHT22;4807;48.024;11.726;2022-08-19T03:52:20;17.20;99.90
9537;DHT22;4807;48.024;11.726;2022-08-19T03:55:29;17.20;99.90
9537;DHT22;4807;48.024;11.726;2022-08-19T03:58:37;17.20;99.90
9537;DHT22;4807;48.024;11.726;2022-08-19T04:01:48;17.20;99.90
9537;DHT22;4807;48.024;11.726;2022-08-19T04:04:57;17.30;99.90
9537;DHT22;4807;48.024;11.726;2022-08-19T04:08:06;17.30;99.90
9537;DHT22;4807;48.024;11.726;2022-08-19T04:11:24;17.40;99.90
9537;DHT22;4807;48.024;11.726;2022-08-19T04:14:49;17.00;99.90
9537;DHT22;4807;48.024;11.726;2022-08-19T04:17:58;17.50;99.90
9537;DHT22;4807;48.024;11.726;2022-08-19T04:21:08;17.50;99.90
9537;DHT22;4807;48.024;11.726;2022-08-19T04:24:23;17.60;99.90
9537;DHT22;4807;48.024;11.726;2022-08-19T04:27:31;17.60;99.90
9537;DHT22;4807;48.024;11.726;2022-08-19T04:30:42;17.50;99.90
9537;DHT22;4807;48.024;11.726;2022-08-19T04:33:52;17.60;99.90
9537;DHT22;4807;48.024;11.726;2022-08-19T04:37:05;17.70;99.90
9537;DHT22;4807;48.024;11.726;2022-08-19T04:40:19;17.70;99.90
9537;DHT22;4807;48.024;11.726;2022-08-19T04:43:45;17.70;99.90
9537;DHT22;4807;48.024;11.726;2022-08-19T04:46:55;17.60;99.90
9537;DHT22;4807;48.024;11.726;2022-08-19T04:50:06;17.60;99.90
9537;DHT22;4807;48.024;11.726;2022-08-19T04:53:19;17.60;99.90
9537;DHT22;4807;48.024;11.726;2022-08-19T04:56:28;17.70;99.90
9537;DHT22;4807;48.024;11.726;2022-08-19T04:59:37;17.80;99.90
9537;DHT22;4807;48.024;11.726;2022-08-19T05:02:46;17.70;99.90
9537;DHT22;4807;48.024;11.726;2022-08-19T05:05:56;17.70;99.90
9537;DHT22;4807;48.024;11.726;2022-08-19T05:09:06;17.60;99.90
9537;DHT22;4807;48.024;11.726;2022-08-19T05:12:14;17.70;99.90
9537;DHT22;4807;48.024;11.726;2022-08-19T05:15:23;17.90;99.90
9537;DHT22;4807;48.024;11.726;2022-08-19T05:18:31;17.90;99.90
9537;DHT22;4807;48.024;11.726;2022-08-19T05:21:58;17.90;99.90
9537;DHT22;4807;48.024;11.726;2022-08-19T05:25:26;17.90;99.90
9537;DHT22;4807;48.024;11.726;2022-08-19T05:28:34;17.80;99.90
9537;DHT22;4807;48.024;11.726;2022-08-19T05:31:43;17.80;99.90
9537;DHT22;4807;48.024;11.726;2022-08-19T05:34:52;17.80;99.90
9537;DHT22;4807;48.024;11.726;2022-08-19T05:38:01;17.80;99.90
9537;DHT22;4807;48.024;11.726;2022-08-19T05:41:12;17.90;99.90
9537;DHT22;4807;48.024;11.726;2022-08-19T05:44:22;17.90;99.90
9537;DHT22;4807;48.024;11.726;2022-08-19T05:47:30;17.90;99.90
9537;DHT22;4807;48.024;11.726;2022-08-19T05:50:39;18.00;99.90
9537;DHT22;4807;48.024;11.726;2022-08-19T05:53:50;18.00;99.90
9537;DHT22;4807;48.024;11.726;2022-08-19T05:57:00;18.10;99.90
9537;DHT22;4807;48.024;11.726;2022-08-19T06:00:10;18.30;99.90
9537;DHT22;4807;48.024;11.726;2022-08-19T06:03:23;18.10;99.90
9537;DHT22;4807;48.024;11.726;2022-08-19T06:06:32;18.10;99.90
9537;DHT22;4807;48.024;11.726;2022-08-19T06:09:41;18.10;99.90
9537;DHT22;4807;48.024;11.726;2022-08-19T06:13:10;18.10;99.90
9537;DHT22;4807;48.024;11.726;2022-08-19T06:16:19;18.10;99.90
9537;DHT22;4807;48.024;11.726;2022-08-19T06:19:30;18.10;99.90
9537;DHT22;4807;48.024;11.726;2022-08-19T06:22:40;18.00;99.90
9537;DHT22;4807;48.024;11.726;2022-08-19T06:25:49;18.10;99.90
9537;DHT22;4807;48.024;11.726;2022-08-19T06:28:59;18.10;99.90
9537;DHT22;4807;48.024;11.726;2022-08-19T06:32:08;18.10;99.90
9537;DHT22;4807;48.024;11.726;2022-08-19T06:35:16;18.10;99.90
9537;DHT22;4807;48.024;11.726;2022-08-19T06:38:28;18.10;99.90
9537;DHT22;4807;48.024;11.726;2022-08-19T06:41:37;18.20;99.90
9537;DHT22;4807;48.024;11.726;2022-08-19T06:44:58;18.40;99.90
9537;DHT22;4807;48.024;11.726;2022-08-19T06:48:15;18.50;99.90
9537;DHT22;4807;48.024;11.726;2022-08-19T06:51:26;18.50;99.90
9537;DHT22;4807;48.024;11.726;2022-08-19T06:54:37;18.70;99.90
9537;DHT22;4807;48.024;11.726;2022-08-19T06:58:02;18.80;99.90
9537;DHT22;4807;48.024;11.726;2022-08-19T07:01:12;18.80;99.90
9537;DHT22;4807;48.024;11.726;2022-08-19T07:04:22;18.90;99.90
9537;DHT22;4807;48.024;11.726;2022-08-19T07:07:33;18.80;99.90
9537;DHT22;4807;48.024;11.726;2022-08-19T07:10:43;18.80;99.90
9537;DHT22;4807;48.024;11.726;2022-08-19T07:13:52;19.00;99.90
9537;DHT22;4807;48.024;11.726;2022-08-19T07:17:10;18.80;99.90
9537;DHT22;4807;48.024;11.726;2022-08-19T07:20:23;18.60;99.90
9537;DHT22;4807;48.024;11.726;2022-08-19T07:23:35;18.70;99.90
9537;DHT22;4807;48.024;11.726;2022-08-19T07:26:44;18.80;99.90
9537;DHT22;4807;48.024;11.726;2022-08-19T07:29:57;18.70;99.90
9537;DHT22;4807;48.024;11.726;2022-08-19T07:33:08;18.60;99.90
9537;DHT22;4807;48.024;11.726;2022-08-19T07:36:18;19.00;99.90
9537;DHT22;4807;48.024;11.726;2022-08-19T07:39:33;19.30;99.90
9537;DHT22;4807;48.024;11.726;2022-08-19T07:42:44;19.80;99.90
9537;DHT22;4807;48.024;11.726;2022-08-19T07:45:53;20.40;99.90
9537;DHT22;4807;48.024;11.726;2022-08-19T07:49:06;21.10;99.90
9537;DHT22;4807;48.024;11.726;2022-08-19T07:52:25;21.50;99.90
9537;DHT22;4807;48.024;11.726;2022-08-19T07:55:34;21.60;99.90
9537;DHT22;4807;48.024;11.726;2022-08-19T07:58:50;21.40;99.90
9537;DHT22;4807;48.024;11.726;2022-08-19T08:02:00;20.40;99.90
9537;DHT22;4807;48.024;11.726;2022-08-19T08:05:11;20.50;99.90
9537;DHT22;4807;48.024;11.726;2022-08-19T08:08:41;20.10;99.90
9537;DHT22;4807;48.024;11.726;2022-08-19T08:12:16;19.90;99.90
9537;DHT22;4807;48.024;11.726;2022-08-19T08:15:41;19.30;99.90
9537;DHT22;4807;48.024;11.726;2022-08-19T08:18:52;19.20;99.90
9537;DHT22;4807;48.024;11.726;2022-08-19T08:22:07;19.30;99.90
9537;DHT22;4807;48.024;11.726;2022-08-19T08:28:50;18.70;99.90
9537;DHT22;4807;48.024;11.726;2022-08-19T08:32:00;17.20;99.90
9537;DHT22;4807;48.024;11.726;2022-08-19T08:35:23;18.70;99.90
9537;DHT22;4807;48.024;11.726;2022-08-19T08:38:36;19.00;99.90
9537;DHT22;4807;48.024;11.726;2022-08-19T08:41:52;18.70;99.90
9537;DHT22;4807;48.024;11.726;2022-08-19T08:45:17;18.80;99.90
9537;DHT22;4807;48.024;11.726;2022-08-19T08:48:35;18.70;99.90
9537;DHT22;4807;48.024;11.726;2022-08-19T08:51:51;18.60;99.90
9537;DHT22;4807;48.024;11.726;2022-08-19T08:55:12;19.30;99.90
9537;DHT22;4807;48.024;11.726;2022-08-19T08:58:30;18.60;99.90
9537;DHT22;4807;48.024;11.726;2022-08-19T09:01:48;18.70;99.90
9537;DHT22;4807;48.024;11.726;2022-08-19T09:04:57;19.00;99.90
9537;DHT22;4807;48.024;11.726;2022-08-19T09:08:12;19.30;99.90
9537;DHT22;4807;48.024;11.726;2022-08-19T09:11:41;19.40;99.90
9537;DHT22;4807;48.024;11.726;2022-08-19T09:15:02;19.60;99.90
9537;DHT22;4807;48.024;11.726;2022-08-19T09:18:16;19.90;99.90
9537;DHT22;4807;48.024;11.726;2022-08-19T09:21:26;20.20;99.90
9537;DHT22;4807;48.024;11.726;2022-08-19T09:24:39;20.50;99.90
9537;DHT22;4807;48.024;11.726;2022-08-19T09:27:51;20.80;99.90
9537;DHT22;4807;48.024;11.726;2022-08-19T09:31:13;21.00;99.90
9537;DHT22;4807;48.024;11.726;2022-08-19T09:34:23;21.00;99.90
9537;DHT22;4807;48.024;11.726;2022-08-19T09:37:33;21.50;99.90
9537;DHT22;4807;48.024;11.726;2022-08-19T09:40:42;22.00;99.90
9537;DHT22;4807;48.024;11.726;2022-08-19T09:43:54;22.80;99.90
9537;DHT22;4807;48.024;11.726;2022-08-19T09:47:05;23.60;99.90
9537;DHT22;4807;48.024;11.726;2022-08-19T09:50:15;24.20;99.90
9537;DHT22;4807;48.024;11.726;2022-08-19T09:53:25;24.40;99.90
9537;DHT22;4807;48.024;11.726;2022-08-19T09:56:34;24.00;99.90
9537;DHT22;4807;48.024;11.726;2022-08-19T09:59:44;23.90;99.90
9537;DHT22;4807;48.024;11.726;2022-08-19T10:02:53;24.20;99.90
9537;DHT22;4807;48.024;11.726;2022-08-19T10:06:04;23.90;99.90
9537;DHT22;4807;48.024;11.726;2022-08-19T10:09:23;23.80;99.90
9537;DHT22;4807;48.024;11.726;2022-08-19T10:12:46;23.40;99.90
9537;DHT22;4807;48.024;11.726;2022-08-19T10:16:03;23.40;99.90
9537;DHT22;4807;48.024;11.726;2022-08-19T10:19:13;23.50;99.90
9537;DHT22;4807;48.024;11.726;2022-08-19T10:22:31;23.50;99.90
9537;DHT22;4807;48.024;11.726;2022-08-19T10:25:42;23.70;99.90
9537;DHT22;4807;48.024;11.726;2022-08-19T10:28:54;23.40;99.90
9537;DHT22;4807;48.024;11.726;2022-08-19T10:32:07;23.50;99.90
9537;DHT22;4807;48.024;11.726;2022-08-19T10:35:17;23.60;99.90
9537;DHT22;4807;48.024;11.726;2022-08-19T10:38:28;23.50;99.90
9537;DHT22;4807;48.024;11.726;2022-08-19T10:41:39;23.50;99.90
9537;DHT22;4807;48.024;11.726;2022-08-19T10:44:51;23.00;99.90
9537;DHT22;4807;48.024;11.726;2022-08-19T10:48:01;23.10;99.90
9537;DHT22;4807;48.024;11.726;2022-08-19T10:51:10;23.50;99.90
9537;DHT22;4807;48.024;11.726;2022-08-19T10:54:36;23.70;99.90
9537;DHT22;4807;48.024;11.726;2022-08-19T10:58:10;23.80;99.90
9537;DHT22;4807;48.024;11.726;2022-08-19T11:01:20;23.50;99.90
9537;DHT22;4807;48.024;11.726;2022-08-19T11:04:30;22.90;99.90
9537;DHT22;4807;48.024;11.726;2022-08-19T11:07:40;22.70;99.90
9537;DHT22;4807;48.024;11.726;2022-08-19T11:10:49;22.40;99.90
9537;DHT22;4807;48.024;11.726;2022-08-19T11:14:00;22.40;99.90
9537;DHT22;4807;48.024;11.726;2022-08-19T11:17:08;23.00;99.90
9537;DHT22;4807;48.024;11.726;2022-08-19T11:20:19;23.60;99.90
9537;DHT22;4807;48.024;11.726;2022-08-19T11:23:27;24.30;99.80
9537;DHT22;4807;48.024;11.726;2022-08-19T11:26:38;24.40;99.70
9537;DHT22;4807;48.024;11.726;2022-08-19T11:29:48;23.10;97.00
9537;DHT22;4807;48.024;11.726;2022-08-19T11:33:03;24.60;97.60
9537;DHT22;4807;48.024;11.726;2022-08-19T11:36:13;24.10;98.10
9537;DHT22;4807;48.024;11.726;2022-08-19T11:39:22;24.10;99.10
9537;DHT22;4807;48.024;11.726;2022-08-19T11:42:31;24.00;98.20
9537;DHT22;4807;48.024;11.726;2022-08-19T11:46:06;24.30;99.20
9537;DHT22;4807;48.024;11.726;2022-08-19T11:49:18;25.20;98.10
9537;DHT22;4807;48.024;11.726;2022-08-19T11:52:29;25.20;96.10
9537;DHT22;4807;48.024;11.726;2022-08-19T11:55:37;25.30;96.70
9537;DHT22;4807;48.024;11.726;2022-08-19T11:58:50;25.00;96.60
9537;DHT22;4807;48.024;11.726;2022-08-19T12:01:59;25.10;96.50
9537;DHT22;4807;48.024;11.726;2022-08-19T12:05:08;25.10;96.20
9537;DHT22;4807;48.024;11.726;2022-08-19T12:08:20;25.00;94.70
9537;DHT22;4807;48.024;11.726;2022-08-19T12:11:29;25.10;95.50
9537;DHT22;4807;48.024;11.726;2022-08-19T12:14:40;25.30;94.50
9537;DHT22;4807;48.024;11.726;2022-08-19T12:17:48;24.70;94.90
9537;DHT22;4807;48.024;11.726;2022-08-19T12:20:57;24.20;96.00
9537;DHT22;4807;48.024;11.726;2022-08-19T12:24:09;24.20;96.00
9537;DHT22;4807;48.024;11.726;2022-08-19T12:27:18;24.10;95.70
9537;DHT22;4807;48.024;11.726;2022-08-19T12:30:47;24.40;96.60
9537;DHT22;4807;48.024;11.726;2022-08-19T12:33:57;24.70;96.20
9537;DHT22;4807;48.024;11.726;2022-08-19T12:37:06;24.90;95.70
9537;DHT22;4807;48.024;11.726;2022-08-19T12:40:16;24.10;96.30
9537;DHT22;4807;48.024;11.726;2022-08-19T12:43:26;22.50;98.60
9537;DHT22;4807;48.024;11.726;2022-08-19T12:46:37;22.10;99.90
9537;DHT22;4807;48.024;11.726;2022-08-19T12:49:48;22.00;99.90
9537;DHT22;4807;48.024;11.726;2022-08-19T12:53:02;21.70;99.90
9537;DHT22;4807;48.024;11.726;2022-08-19T12:56:12;22.40;99.90
9537;DHT22;4807;48.024;11.726;2022-08-19T12:59:26;22.40;99.90
9537;DHT22;4807;48.024;11.726;2022-08-19T13:02:42;22.50;99.90
9537;DHT22;4807;48.024;11.726;2022-08-19T13:05:59;22.40;99.90
9537;DHT22;4807;48.024;11.726;2022-08-19T13:09:10;22.30;99.90
9537;DHT22;4807;48.024;11.726;2022-08-19T13:12:20;22.10;99.90
9537;DHT22;4807;48.024;11.726;2022-08-19T13:15:33;22.00;99.90
9537;DHT22;4807;48.024;11.726;2022-08-19T13:18:44;22.10;99.90
9537;DHT22;4807;48.024;11.726;2022-08-19T13:21:57;22.40;99.90
9537;DHT22;4807;48.024;11.726;2022-08-19T13:25:07;22.20;99.90
9537;DHT22;4807;48.024;11.726;2022-08-19T13:28:18;22.20;99.90
9537;DHT22;4807;48.024;11.726;2022-08-19T13:31:36;21.80;99.90
9537;DHT22;4807;48.024;11.726;2022-08-19T13:35:05;22.10;99.90
9537;DHT22;4807;48.024;11.726;2022-08-19T13:38:18;22.50;99.90
9537;DHT22;4807;48.024;11.726;2022-08-19T13:41:28;22.70;99.90
9537;DHT22;4807;48.024;11.726;2022-08-19T13:44:39;23.20;99.80
9537;DHT22;4807;48.024;11.726;2022-08-19T13:47:47;23.40;98.60
9537;DHT22;4807;48.024;11.726;2022-08-19T13:51:05;23.60;98.10
9537;DHT22;4807;48.024;11.726;2022-08-19T13:54:17;22.90;98.10
9537;DHT22;4807;48.024;11.726;2022-08-19T13:57:29;22.60;98.70
9537;DHT22;4807;48.024;11.726;2022-08-19T14:00:42;22.00;99.90
9537;DHT22;4807;48.024;11.726;2022-08-19T14:03:53;22.00;99.90
9537;DHT22;4807;48.024;11.726;2022-08-19T14:07:04;22.50;98.80
9537;DHT22;4807;48.024;11.726;2022-08-19T14:10:13;22.90;98.70
9537;DHT22;4807;48.024;11.726;2022-08-19T14:13:23;23.20;97.80
9537;DHT22;4807;48.024;11.726;2022-08-19T14:16:33;23.40;97.80
9537;DHT22;4807;48.024;11.726;2022-08-19T14:19:42;23.40;97.60
9537;DHT22;4807;48.024;11.726;2022-08-19T14:22:54;23.40;97.80
9537;DHT22;4807;48.024;11.726;2022-08-19T14:26:04;22.80;98.40
9537;DHT22;4807;48.024;11.726;2022-08-19T14:29:13;22.70;99.20
9537;DHT22;4807;48.024;11.726;2022-08-19T14:32:23;22.80;98.80
9537;DHT22;4807;48.024;11.726;2022-08-19T14:35:32;22.90;98.80
9537;DHT22;4807;48.024;11.726;2022-08-19T14:38:42;22.90;98.90
9537;DHT22;4807;48.024;11.726;2022-08-19T14:41:52;23.20;98.50
9537;DHT22;4807;48.024;11.726;2022-08-19T14:45:00;23.10;98.50
9537;DHT22;4807;48.024;11.726;2022-08-19T14:48:10;22.90;97.70
9537;DHT22;4807;48.024;11.726;2022-08-19T14:51:26;23.20;97.50
9537;DHT22;4807;48.024;11.726;2022-08-19T14:54:37;22.80;98.80
9537;DHT22;4807;48.024;11.726;2022-08-19T14:57:46;23.00;98.80
9537;DHT22;4807;48.024;11.726;2022-08-19T15:00:54;23.10;98.00
9537;DHT22;4807;48.024;11.726;2022-08-19T15:04:04;22.90;98.60
9537;DHT22;4807;48.024;11.726;2022-08-19T15:07:13;23.00;98.20
9537;DHT22;4807;48.024;11.726;2022-08-19T15:10:22;23.00;98.70
9537;DHT22;4807;48.024;11.726;2022-08-19T15:13:31;23.20;97.60
9537;DHT22;4807;48.024;11.726;2022-08-19T15:16:40;23.20;97.70
9537;DHT22;4807;48.024;11.726;2022-08-19T15:19:51;22.90;98.10
9537;DHT22;4807;48.024;11.726;2022-08-19T15:23:00;22.50;98.90
9537;DHT22;4807;48.024;11.726;2022-08-19T15:26:08;22.20;99.20
9537;DHT22;4807;48.024;11.726;2022-08-19T15:29:22;22.20;99.70
9537;DHT22;4807;48.024;11.726;2022-08-19T15:32:32;22.50;99.10
9537;DHT22;4807;48.024;11.726;2022-08-19T15:35:43;22.80;98.50
9537;DHT22;4807;48.024;11.726;2022-08-19T15:38:52;22.50;98.40
9537;DHT22;4807;48.024;11.726;2022-08-19T15:42:01;22.30;99.70
9537;DHT22;4807;48.024;11.726;2022-08-19T15:45:13;23.10;99.60
9537;DHT22;4807;48.024;11.726;2022-08-19T15:48:23;22.40;99.20
9537;DHT22;4807;48.024;11.726;2022-08-19T15:51:35;22.00;99.90
9537;DHT22;4807;48.024;11.726;2022-08-19T15:54:45;21.50;99.90
9537;DHT22;4807;48.024;11.726;2022-08-19T15:57:53;21.30;99.90
9537;DHT22;4807;48.024;11.726;2022-08-19T16:01:35;21.80;99.90
9537;DHT22;4807;48.024;11.726;2022-08-19T16:05:03;22.40;99.90
9537;DHT22;4807;48.024;11.726;2022-08-19T16:08:32;22.60;99.60
9537;DHT22;4807;48.024;11.726;2022-08-19T16:11:56;22.50;99.20
9537;DHT22;4807;48.024;11.726;2022-08-19T16:15:10;22.10;99.90
9537;DHT22;4807;48.024;11.726;2022-08-19T16:18:20;22.00;99.90
9537;DHT22;4807;48.024;11.726;2022-08-19T16:21:33;22.00;99.90
9537;DHT22;4807;48.024;11.726;2022-08-19T16:24:49;22.40;99.90
9537;DHT22;4807;48.024;11.726;2022-08-19T16:27:58;22.50;99.40
9537;DHT22;4807;48.024;11.726;2022-08-19T16:31:14;22.60;98.10
9537;DHT22;4807;48.024;11.726;2022-08-19T16:34:24;22.70;97.90
9537;DHT22;4807;48.024;11.726;2022-08-19T16:37:33;22.60;98.10
9537;DHT22;4807;48.024;11.726;2022-08-19T16:40:43;22.20;98.60
9537;DHT22;4807;48.024;11.726;2022-08-19T16:43:55;22.10;98.90
9537;DHT22;4807;48.024;11.726;2022-08-19T16:47:04;21.90;99.40
9537;DHT22;4807;48.024;11.726;2022-08-19T16:50:12;21.80;99.00
9537;DHT22;4807;48.024;11.726;2022-08-19T16:53:29;21.80;99.00
9537;DHT22;4807;48.024;11.726;2022-08-19T16:56:45;21.80;99.40
9537;DHT22;4807;48.024;11.726;2022-08-19T16:59:54;21.70;99.60
9537;DHT22;4807;48.024;11.726;2022-08-19T17:03:06;21.40;99.80
9537;DHT22;4807;48.024;11.726;2022-08-19T17:06:23;21.40;99.90
9537;DHT22;4807;48.024;11.726;2022-08-19T17:09:33;21.50;99.90
9537;DHT22;4807;48.024;11.726;2022-08-19T17:12:45;21.10;99.90
9537;DHT22;4807;48.024;11.726;2022-08-19T17:15:53;21.00;99.90
9537;DHT22;4807;48.024;11.726;2022-08-19T17:19:05;20.90;99.90
9537;DHT22;4807;48.024;11.726;2022-08-19T17:22:17;20.70;99.90
9537;DHT22;4807;48.024;11.726;2022-08-19T17:25:27;20.50;99.90
9537;DHT22;4807;48.024;11.726;2022-08-19T17:28:38;20.30;99.90
9537;DHT22;4807;48.024;11.726;2022-08-19T17:31:48;20.20;99.90
9537;DHT22;4807;48.024;11.726;2022-08-19T17:34:57;20.10;99.90
9537;DHT22;4807;48.024;11.726;2022-08-19T17:38:07;19.80;99.90
9537;DHT22;4807;48.024;11.726;2022-08-19T17:41:17;19.90;99.90
9537;DHT22;4807;48.024;11.726;2022-08-19T17:44:27;19.70;99.90
9537;DHT22;4807;48.024;11.726;2022-08-19T17:47:39;19.70;99.90
9537;DHT22;4807;48.024;11.726;2022-08-19T17:50:50;19.60;99.90
9537;DHT22;4807;48.024;11.726;2022-08-19T17:54:01;19.40;99.90
9537;DHT22;4807;48.024;11.726;2022-08-19T17:57:13;19.30;99.90
9537;DHT22;4807;48.024;11.726;2022-08-19T18:00:27;19.30;99.90
9537;DHT22;4807;48.024;11.726;2022-08-19T18:03:38;19.20;99.90
9537;DHT22;4807;48.024;11.726;2022-08-19T18:06:47;19.20;99.90
9537;DHT22;4807;48.024;11.726;2022-08-19T18:10:00;19.30;99.90
9537;DHT22;4807;48.024;11.726;2022-08-19T18:13:10;19.10;99.90
9537;DHT22;4807;48.024;11.726;2022-08-19T18:16:25;18.90;99.90
9537;DHT22;4807;48.024;11.726;2022-08-19T18:19:36;18.70;99.90
9537;DHT22;4807;48.024;11.726;2022-08-19T18:22:48;18.50;99.90
9537;DHT22;4807;48.024;11.726;2022-08-19T18:25:58;18.50;99.90
9537;DHT22;4807;48.024;11.726;2022-08-19T18:29:07;18.50;99.90
9537;DHT22;4807;48.024;11.726;2022-08-19T18:32:17;18.50;99.90
9537;DHT22;4807;48.024;11.726;2022-08-19T18:35:30;18.40;99.90
9537;DHT22;4807;48.024;11.726;2022-08-19T18:38:41;18.30;99.90
9537;DHT22;4807;48.024;11.726;2022-08-19T18:42:15;18.30;99.90
9537;DHT22;4807;48.024;11.726;2022-08-19T18:45:44;18.30;99.90
9537;DHT22;4807;48.024;11.726;2022-08-19T18:49:18;17.60;99.90
9537;DHT22;4807;48.024;11.726;2022-08-19T18:52:30;18.10;99.90
9537;DHT22;4807;48.024;11.726;2022-08-19T18:55:39;18.00;99.90
9537;DHT22;4807;48.024;11.726;2022-08-19T18:58:49;18.10;99.90
9537;DHT22;4807;48.024;11.726;2022-08-19T19:02:00;17.90;99.90
9537;DHT22;4807;48.024;11.726;2022-08-19T19:05:11;17.90;99.90
9537;DHT22;4807;48.024;11.726;2022-08-19T19:08:21;17.80;99.90
9537;DHT22;4807;48.024;11.726;2022-08-19T19:11:35;17.90;99.90
9537;DHT22;4807;48.024;11.726;2022-08-19T19:14:47;17.90;99.90
9537;DHT22;4807;48.024;11.726;2022-08-19T19:17:57;17.90;99.90
9537;DHT22;4807;48.024;11.726;2022-08-19T19:21:10;18.00;99.90
9537;DHT22;4807;48.024;11.726;2022-08-19T19:24:27;17.90;99.90
9537;DHT22;4807;48.024;11.726;2022-08-19T19:27:44;18.00;99.90
9537;DHT22;4807;48.024;11.726;2022-08-19T19:30:57;18.20;99.90
9537;DHT22;4807;48.024;11.726;2022-08-19T19:34:12;17.90;99.90
9537;DHT22;4807;48.024;11.726;2022-08-19T19:37:40;17.90;99.90
9537;DHT22;4807;48.024;11.726;2022-08-19T19:41:00;17.80;99.90
9537;DHT22;4807;48.024;11.726;2022-08-19T19:44:09;17.70;99.90
9537;DHT22;4807;48.024;11.726;2022-08-19T19:47:36;17.60;99.90
9537;DHT22;4807;48.024;11.726;2022-08-19T19:50:46;17.60;99.90
9537;DHT22;4807;48.024;11.726;2022-08-19T19:54:04;17.50;99.90
9537;DHT22;4807;48.024;11.726;2022-08-19T19:57:12;17.60;99.90
9537;DHT22;4807;48.024;11.726;2022-08-19T20:00:22;17.50;99.90
9537;DHT22;4807;48.024;11.726;2022-08-19T20:03:32;17.30;99.90
9537;DHT22;4807;48.024;11.726;2022-08-19T20:06:42;17.50;99.90
9537;DHT22;4807;48.024;11.726;2022-08-19T20:09:53;17.40;99.90
9537;DHT22;4807;48.024;11.726;2022-08-19T20:13:07;17.40;99.90
9537;DHT22;4807;48.024;11.726;2022-08-19T20:16:16;17.30;99.90
9537;DHT22;4807;48.024;11.726;2022-08-19T20:19:27;17.20;99.90
9537;DHT22;4807;48.024;11.726;2022-08-19T20:22:43;17.20;99.90
9537;DHT22;4807;48.024;11.726;2022-08-19T20:25:56;17.20;99.90
9537;DHT22;4807;48.024;11.726;2022-08-19T20:29:05;17.20;99.90
9537;DHT22;4807;48.024;11.726;2022-08-19T20:32:34;17.10;99.90
9537;DHT22;4807;48.024;11.726;2022-08-19T20:35:43;17.10;99.90
9537;DHT22;4807;48.024;11.726;2022-08-19T20:38:55;17.20;99.90